Overview Statistics Trail Chart Weather Telemetry Raw packets
 

This is the latest recevied weather packets stored in our database for station/object EA1GGY-1. If no packets are shown the sender has not sent any weather packets the latest 10 day(s).

<< 2 3 4 5 6 7 8 >>
Time Temp. Humidity Pressure Rain* Wind** Luminosity Snow
1788552119 21.11° C 54% 1022 hPa - - - -
1788551518 21.67° C 55% 1021.9 hPa - - - -
1788550917 22.22° C 53% 1021.6 hPa - - - -
1788550316 22.78° C 50% 1021.4 hPa - - - -
1788549716 22.22° C 50% 1021.2 hPa - - - -
1788549115 22.78° C 51% 1021.1 hPa - - - -
1788548514 22.78° C 49% 1020.9 hPa - - - -
1788547913 23.33° C 52% 1020.9 hPa - - - -
1788547312 23.89° C 49% 1020.7 hPa - - - -
1788546712 24.44° C 47% 1020.6 hPa - - - -
1788546111 25.56° C 42% 1020.4 hPa - - - -
1788545510 26.11° C 41% 1020.3 hPa - - - -
1788544909 26.11° C 43% 1020.4 hPa - - - -
1788544308 26.11° C 44% 1020.6 hPa - - - -
1788543708 26.11° C 42% 1020.7 hPa - - - -
1788543107 26.67° C 39% 1020.6 hPa - - - -
1788542506 28.33° C 31% 1020.7 hPa - - - -
1788541904 27.78° C 35% 1020.6 hPa - - - -
1788541303 27.78° C 35% 1020.7 hPa - - - -
1788540703 28.33° C 32% 1020.6 hPa - - - -
1788540102 28.89° C 30% 1020.5 hPa - - - -
1788539501 28.89° C 31% 1020.6 hPa - - - -
1788538900 29.44° C 30% 1020.6 hPa - - - -
1788538299 29.44° C 30% 1020.7 hPa - - - -
1788537699 30° C 30% 1020.7 hPa - - - -

* Rain since midnight (hover to see other rain measurements)
** Current wind speed in m/s (hover to see current wind gust speed)